Time;durP1;ratioP1;P1;durP2;ratioP2;P2;SDS_P1;SDS_P2;PMS_P1;PMS_P2;Temp;Humidity;BMP_temperature;BMP_pressure;BME280_temperature;BME280_humidity;BME280_pressure;Samples;Min_cycle;Max_cycle;Signal;HPM_P1;HPM_P2
2023/04/30 00:00:09;;;;;;;31.73;15.25;;;8.90;99.90;;;;;;5035522;28;20037;-73
2023/04/30 00:02:34;;;;;;;30.00;14.75;;;8.80;99.90;;;;;;5037592;28;20039;-73
2023/04/30 00:05:00;;;;;;;29.48;15.23;;;8.80;99.90;;;;;;5034863;28;20436;-73
2023/04/30 00:07:26;;;;;;;28.67;14.90;;;8.80;99.90;;;;;;5034883;28;20644;-73
2023/04/30 00:09:51;;;;;;;28.90;15.18;;;8.80;99.90;;;;;;5035120;28;20040;-74
2023/04/30 00:12:17;;;;;;;32.90;16.20;;;8.80;99.90;;;;;;5033610;28;20038;-72
2023/04/30 00:14:42;;;;;;;30.38;15.05;;;8.80;99.90;;;;;;5037216;28;20025;-75
2023/04/30 00:17:08;;;;;;;32.47;16.45;;;8.70;99.90;;;;;;5031792;28;20056;-73
2023/04/30 00:19:33;;;;;;;29.70;15.25;;;8.80;99.90;;;;;;5034298;28;20034;-72
2023/04/30 00:22:00;;;;;;;33.47;16.55;;;8.70;99.90;;;;;;5030699;28;20076;-74
2023/04/30 00:24:26;;;;;;;35.80;16.75;;;8.70;99.90;;;;;;5036659;28;20469;-72
2023/04/30 00:26:52;;;;;;;33.85;15.57;;;8.70;99.90;;;;;;5035749;28;20037;-72
2023/04/30 00:29:18;;;;;;;30.85;14.93;;;8.70;99.90;;;;;;5030487;28;20125;-73
2023/04/30 00:31:44;;;;;;;34.13;15.88;;;8.70;99.90;;;;;;5034700;28;20473;-73
2023/04/30 00:34:09;;;;;;;32.95;15.05;;;8.70;99.90;;;;;;5034965;28;20030;-75
2023/04/30 00:36:35;;;;;;;31.05;16.48;;;8.70;99.90;;;;;;5037721;28;20021;-73
2023/04/30 00:39:00;;;;;;;33.33;16.00;;;8.70;99.90;;;;;;5030228;28;20029;-77
2023/04/30 00:41:27;;;;;;;31.63;16.92;;;8.70;99.90;;;;;;5032041;28;20030;-79
2023/04/30 00:43:54;;;;;;;29.73;16.15;;;8.70;99.90;;;;;;5025471;28;20116;-74
2023/04/30 00:46:19;;;;;;;29.75;15.68;;;8.70;99.90;;;;;;5030364;28;20036;-73
2023/04/30 00:48:45;;;;;;;33.60;15.50;;;8.70;99.90;;;;;;5030983;28;20032;-73
2023/04/30 00:51:11;;;;;;;32.72;15.95;;;8.70;99.90;;;;;;5031933;28;20049;-75
2023/04/30 00:53:38;;;;;;;32.20;15.25;;;8.70;99.90;;;;;;5019828;28;20049;-76
2023/04/30 00:56:07;;;;;;;31.67;15.52;;;8.70;99.90;;;;;;5011842;28;20034;-73
2023/04/30 00:58:33;;;;;;;31.40;15.32;;;8.60;99.90;;;;;;5021697;28;20021;-75
2023/04/30 01:01:01;;;;;;;29.30;15.68;;;8.60;99.90;;;;;;5032784;28;20036;-75
2023/04/30 01:03:27;;;;;;;31.85;15.80;;;8.60;99.90;;;;;;5032358;28;20389;-73
2023/04/30 01:05:53;;;;;;;36.03;16.95;;;8.60;99.90;;;;;;5032962;28;20026;-76
2023/04/30 01:08:19;;;;;;;32.33;15.00;;;8.60;99.90;;;;;;5032826;28;20032;-73
2023/04/30 01:10:55;;;;;;;30.10;16.10;;;8.60;99.90;;;;;;5041790;28;20032;-73
2023/04/30 01:13:32;;;;;;;31.10;16.02;;;8.60;99.90;;;;;;5052036;28;20025;-73
2023/04/30 01:16:17;;;;;;;30.20;15.80;;;8.60;99.90;;;;;;5048861;28;20051;-72
2023/04/30 01:18:48;;;;;;;32.58;16.75;;;8.50;99.90;;;;;;5032137;28;20044;-72
2023/04/30 01:21:17;;;;;;;29.25;15.35;;;8.50;99.90;;;;;;5033548;28;20041;-73
2023/04/30 01:24:05;;;;;;;35.25;17.38;;;8.50;99.90;;;;;;5033775;28;20077;-76
2023/04/30 01:26:51;;;;;;;34.70;15.90;;;8.40;99.90;;;;;;5027407;28;20049;-74
2023/04/30 01:29:18;;;;;;;32.63;17.35;;;8.40;99.90;;;;;;5034974;28;20064;-73
2023/04/30 01:31:43;;;;;;;30.92;16.17;;;8.30;99.90;;;;;;5035900;28;20048;-73
2023/04/30 01:34:09;;;;;;;32.38;16.33;;;8.30;99.90;;;;;;5034979;28;20026;-73
2023/04/30 01:36:57;;;;;;;32.72;16.42;;;8.30;99.90;;;;;;5035045;28;20030;-72
2023/04/30 01:39:33;;;;;;;37.40;17.05;;;8.30;99.90;;;;;;5034431;28;20484;-72
2023/04/30 01:42:15;;;;;;;34.42;16.33;;;8.30;99.90;;;;;;5044275;28;20025;-73
2023/04/30 01:45:17;;;;;;;32.38;16.00;;;8.30;99.90;;;;;;5033105;28;20022;-73
2023/04/30 01:48:07;;;;;;;;;;;8.20;99.90;;;;;;5033784;28;20068;-73
2023/04/30 01:50:48;;;;;;;33.33;18.13;;;8.20;99.90;;;;;;5023313;28;19951;-72
2023/04/30 01:53:23;;;;;;;35.58;17.73;;;8.20;99.90;;;;;;5033372;28;20057;-73
2023/04/30 01:55:55;;;;;;;36.47;17.73;;;8.20;99.90;;;;;;5037118;28;20061;-73
2023/04/30 01:58:22;;;;;;;;;;;8.20;99.90;;;;;;5035109;28;20514;-73
2023/04/30 02:00:48;;;;;;;37.95;19.70;;;8.20;99.90;;;;;;5034395;28;19909;-72
2023/04/30 02:03:13;;;;;;;35.22;17.13;;;8.10;99.90;;;;;;5032900;28;20064;-73
2023/04/30 02:05:39;;;;;;;37.63;17.98;;;8.10;99.90;;;;;;5034862;28;20120;-72
2023/04/30 02:08:05;;;;;;;36.45;18.30;;;8.20;99.90;;;;;;5035539;28;20041;-72
2023/04/30 02:10:30;;;;;;;39.58;18.48;;;8.20;99.90;;;;;;5039024;28;20033;-72
2023/04/30 02:12:56;;;;;;;35.53;19.00;;;8.10;99.90;;;;;;5034628;28;20038;-72
2023/04/30 02:15:22;;;;;;;35.50;18.33;;;8.20;99.90;;;;;;5033944;28;20386;-72
2023/04/30 02:17:47;;;;;;;33.97;18.13;;;8.20;99.90;;;;;;5036189;28;20466;-72
2023/04/30 02:20:13;;;;;;;35.15;17.75;;;8.20;99.90;;;;;;5032988;28;20523;-75
2023/04/30 02:22:38;;;;;;;33.67;18.40;;;8.20;99.90;;;;;;5027780;28;20018;-75
2023/04/30 02:25:04;;;;;;;38.67;18.90;;;8.20;99.90;;;;;;5033627;28;20052;-74
2023/04/30 02:27:31;;;;;;;39.40;20.85;;;8.20;99.90;;;;;;5033576;28;20061;-75
2023/04/30 02:29:58;;;;;;;34.20;18.77;;;8.10;99.90;;;;;;5034716;28;20109;-75
2023/04/30 02:32:24;;;;;;;37.17;19.23;;;8.10;99.90;;;;;;5048696;28;20116;-70
2023/04/30 02:34:49;;;;;;;39.70;21.02;;;8.10;99.90;;;;;;5048601;28;20074;-71
2023/04/30 02:37:15;;;;;;;37.95;19.42;;;8.10;99.90;;;;;;5046218;28;20147;-72
2023/04/30 02:39:41;;;;;;;45.70;22.13;;;8.10;99.90;;;;;;5035056;28;20037;-71
2023/04/30 02:42:07;;;;;;;38.05;19.35;;;8.20;99.90;;;;;;5031182;28;20033;-73
2023/04/30 02:44:33;;;;;;;38.35;20.90;;;8.10;99.90;;;;;;5037975;28;20032;-72
2023/04/30 02:46:59;;;;;;;40.90;20.63;;;8.20;99.90;;;;;;5035586;28;20032;-72
2023/04/30 02:49:25;;;;;;;39.03;20.15;;;8.20;99.90;;;;;;5035443;28;20026;-72
2023/04/30 02:51:51;;;;;;;38.95;20.13;;;8.10;99.90;;;;;;5035530;28;20148;-73
2023/04/30 02:54:17;;;;;;;39.42;20.55;;;8.10;99.90;;;;;;5035589;28;20036;-73
2023/04/30 02:56:43;;;;;;;41.85;21.95;;;8.10;99.90;;;;;;5034003;28;20029;-72
2023/04/30 02:59:09;;;;;;;43.85;22.50;;;8.10;99.90;;;;;;5035081;28;20424;-74
2023/04/30 03:01:34;;;;;;;42.17;22.63;;;8.10;99.90;;;;;;5035511;28;20037;-72
2023/04/30 03:04:02;;;;;;;46.75;23.30;;;8.10;99.90;;;;;;5035143;28;20021;-72
2023/04/30 03:06:28;;;;;;;47.58;22.40;;;8.20;99.90;;;;;;5035254;28;20097;-71
2023/04/30 03:08:53;;;;;;;43.78;22.63;;;8.10;99.90;;;;;;5035563;28;20120;-75
2023/04/30 03:11:20;;;;;;;45.47;24.65;;;8.10;99.90;;;;;;5035127;28;20466;-74
2023/04/30 03:13:50;;;;;;;41.00;22.60;;;8.20;99.90;;;;;;5033844;28;20018;-76
2023/04/30 03:16:16;;;;;;;40.53;21.83;;;8.20;99.90;;;;;;5036091;28;20489;-74
2023/04/30 03:18:41;;;;;;;43.92;23.13;;;8.10;99.90;;;;;;5048924;28;20025;-74
2023/04/30 03:21:07;;;;;;;43.33;23.85;;;8.10;99.90;;;;;;5043700;28;20041;-70
2023/04/30 03:23:32;;;;;;;54.53;25.65;;;8.10;99.90;;;;;;5040793;28;20033;-71
2023/04/30 03:25:58;;;;;;;53.78;25.98;;;8.10;99.90;;;;;;5049820;28;20021;-71
2023/04/30 03:28:23;;;;;;;52.78;25.65;;;8.10;99.90;;;;;;5038015;28;20054;-71
2023/04/30 03:30:49;;;;;;;53.80;27.08;;;8.10;99.90;;;;;;5053684;28;20025;-72
2023/04/30 03:33:15;;;;;;;56.40;26.95;;;8.10;99.90;;;;;;5054464;28;20036;-71
2023/04/30 03:35:40;;;;;;;53.33;27.10;;;8.10;99.90;;;;;;5053871;28;20377;-71
2023/04/30 03:38:06;;;;;;;53.17;26.20;;;8.10;99.90;;;;;;5054325;28;20449;-71
2023/04/30 03:40:31;;;;;;;53.47;27.48;;;8.10;99.90;;;;;;5054342;28;20044;-71
2023/04/30 03:42:57;;;;;;;55.67;27.05;;;8.10;99.90;;;;;;5054237;28;20044;-71
2023/04/30 03:45:23;;;;;;;53.90;25.65;;;8.10;99.90;;;;;;5037811;28;20040;-71
2023/04/30 03:47:48;;;;;;;57.90;27.65;;;8.10;99.90;;;;;;5037922;28;20035;-71
2023/04/30 03:50:16;;;;;;;55.55;26.75;;;8.10;99.90;;;;;;5042176;28;20033;-71
2023/04/30 03:52:42;;;;;;;53.00;25.23;;;8.10;99.90;;;;;;5041944;28;20116;-71
2023/04/30 03:55:08;;;;;;;52.35;24.15;;;8.10;99.90;;;;;;5044986;28;20113;-71
2023/04/30 03:57:33;;;;;;;40.72;21.55;;;8.10;99.90;;;;;;5045550;28;20029;-72
2023/04/30 03:59:59;;;;;;;42.28;21.38;;;8.00;99.90;;;;;;5038802;28;20417;-73
2023/04/30 04:02:24;;;;;;;45.53;20.10;;;8.00;99.90;;;;;;5043890;28;20025;-73
2023/04/30 04:04:50;;;;;;;40.75;19.23;;;8.00;99.90;;;;;;5041619;28;20420;-70
2023/04/30 04:07:16;;;;;;;36.58;19.13;;;8.00;99.90;;;;;;5044421;28;20030;-71
2023/04/30 04:09:42;;;;;;;37.42;18.20;;;8.00;99.90;;;;;;5046682;28;20025;-71
2023/04/30 04:12:07;;;;;;;39.20;17.90;;;8.00;99.90;;;;;;5050063;28;20053;-72
2023/04/30 04:14:33;;;;;;;39.80;18.02;;;8.00;99.90;;;;;;5037459;28;20493;-71
2023/04/30 04:16:59;;;;;;;37.70;18.30;;;8.00;99.90;;;;;;5046217;28;20022;-73
2023/04/30 04:19:25;;;;;;;33.72;16.40;;;8.00;99.90;;;;;;5044557;28;20021;-72
2023/04/30 04:21:51;;;;;;;41.53;18.05;;;8.10;99.90;;;;;;5035310;28;20061;-71
2023/04/30 04:24:17;;;;;;;37.22;17.55;;;8.10;99.90;;;;;;5048860;28;20029;-73
2023/04/30 04:26:42;;;;;;;40.72;18.00;;;8.10;99.90;;;;;;5038559;28;20092;-72
2023/04/30 04:29:09;;;;;;;32.47;16.10;;;8.10;99.90;;;;;;5043359;28;20080;-73
2023/04/30 04:31:34;;;;;;;32.15;15.95;;;8.10;99.90;;;;;;5045552;28;20128;-71
2023/04/30 04:34:03;;;;;;;34.15;16.45;;;8.10;99.90;;;;;;5038223;28;20104;-72
2023/04/30 04:36:29;;;;;;;35.45;16.17;;;8.10;99.90;;;;;;5050009;28;20053;-74
2023/04/30 04:39:00;;;;;;;32.88;15.63;;;8.20;99.90;;;;;;5040091;28;20083;-70
2023/04/30 04:41:27;;;;;;;33.73;15.70;;;8.20;99.90;;;;;;5042252;28;20060;-74
2023/04/30 04:43:53;;;;;;;35.92;16.13;;;8.20;99.90;;;;;;5047628;28;20250;-72
2023/04/30 04:46:19;;;;;;;33.03;15.32;;;8.30;99.90;;;;;;5034653;28;20386;-72
2023/04/30 04:48:45;;;;;;;30.90;15.63;;;8.30;99.90;;;;;;5038314;28;20021;-70
2023/04/30 04:51:11;;;;;;;29.38;14.90;;;8.30;99.90;;;;;;5035544;28;20508;-70
2023/04/30 04:53:37;;;;;;;32.50;15.35;;;8.30;99.90;;;;;;5045054;28;20033;-71
2023/04/30 04:56:03;;;;;;;28.33;15.20;;;8.40;99.90;;;;;;5036936;28;20024;-72
2023/04/30 04:58:28;;;;;;;32.38;15.05;;;8.40;99.90;;;;;;5048803;28;20068;-69
2023/04/30 05:00:54;;;;;;;30.92;14.57;;;8.40;99.90;;;;;;5039537;28;20041;-71
2023/04/30 05:03:19;;;;;;;30.40;15.60;;;8.50;99.90;;;;;;5052052;28;20078;-70
2023/04/30 05:05:45;;;;;;;31.10;14.80;;;8.50;99.90;;;;;;5043910;28;20026;-69
2023/04/30 05:08:11;;;;;;;30.35;14.02;;;8.60;99.90;;;;;;5038864;28;20033;-72
2023/04/30 05:10:37;;;;;;;26.67;12.65;;;8.60;99.90;;;;;;5047484;28;20094;-71
2023/04/30 05:13:02;;;;;;;28.30;13.60;;;8.60;99.90;;;;;;5039197;28;20037;-69
2023/04/30 05:15:28;;;;;;;26.25;13.65;;;8.70;99.90;;;;;;5044105;28;20461;-69
2023/04/30 05:17:54;;;;;;;26.77;13.27;;;8.70;99.90;;;;;;5041114;28;20115;-70
2023/04/30 05:20:20;;;;;;;24.25;12.20;;;8.80;99.90;;;;;;5047926;28;20021;-70
2023/04/30 05:22:45;;;;;;;27.58;13.13;;;8.80;99.90;;;;;;5032570;28;20104;-70
2023/04/30 05:25:11;;;;;;;28.42;13.65;;;8.80;99.90;;;;;;5032242;28;20065;-70
2023/04/30 05:27:36;;;;;;;24.58;12.75;;;8.90;99.90;;;;;;5033214;28;20107;-69
2023/04/30 05:30:02;;;;;;;24.30;12.30;;;9.00;99.90;;;;;;5041814;28;20025;-70
2023/04/30 05:32:28;;;;;;;26.83;12.77;;;9.00;99.90;;;;;;5043817;28;20047;-69
2023/04/30 05:34:53;;;;;;;24.15;12.32;;;9.10;99.90;;;;;;5042906;28;20090;-70
2023/04/30 05:37:21;;;;;;;24.83;12.07;;;9.20;99.90;;;;;;5046387;28;20613;-70
2023/04/30 05:39:47;;;;;;;24.02;12.32;;;9.30;99.90;;;;;;5035066;28;20362;-70
2023/04/30 05:42:12;;;;;;;25.52;13.55;;;9.30;99.90;;;;;;5037582;28;20043;-70
2023/04/30 05:44:38;;;;;;;25.30;11.85;;;9.40;99.90;;;;;;5046758;28;20037;-70
2023/04/30 05:47:04;;;;;;;21.58;11.35;;;9.50;99.90;;;;;;5037665;28;20045;-70
2023/04/30 05:49:30;;;;;;;21.85;11.30;;;9.60;99.90;;;;;;5037858;28;20367;-70
2023/04/30 05:51:55;;;;;;;25.23;11.57;;;9.70;99.90;;;;;;5041811;28;20044;-70
2023/04/30 05:54:21;;;;;;;23.00;11.40;;;9.80;99.90;;;;;;5044962;28;20032;-73
2023/04/30 05:56:47;;;;;;;22.20;10.32;;;9.90;99.90;;;;;;5042822;28;20456;-73
2023/04/30 05:59:12;;;;;;;20.67;10.02;;;10.00;99.90;;;;;;5037436;28;20040;-71
2023/04/30 06:01:38;;;;;;;21.23;10.07;;;10.20;99.90;;;;;;5034777;28;20040;-73
2023/04/30 06:04:04;;;;;;;20.13;9.60;;;10.30;99.90;;;;;;5046870;28;20025;-72
2023/04/30 06:06:31;;;;;;;18.05;9.20;;;10.40;99.90;;;;;;5040447;28;20422;-72
2023/04/30 06:08:57;;;;;;;18.30;9.32;;;10.60;99.90;;;;;;5044283;28;20033;-73
2023/04/30 06:11:24;;;;;;;19.80;9.10;;;10.70;99.90;;;;;;5032419;28;20087;-71
2023/04/30 06:13:50;;;;;;;20.50;9.63;;;10.90;99.90;;;;;;5046733;28;20148;-72
2023/04/30 06:16:15;;;;;;;17.23;8.88;;;11.00;99.90;;;;;;5038177;28;20112;-70
2023/04/30 06:18:41;;;;;;;19.67;9.85;;;11.10;99.90;;;;;;5041786;28;20026;-70
2023/04/30 06:21:06;;;;;;;22.23;9.00;;;11.30;99.90;;;;;;5033617;28;20466;-70
2023/04/30 06:23:32;;;;;;;15.38;7.85;;;11.70;99.90;;;;;;5047832;28;20108;-70
2023/04/30 06:25:58;;;;;;;16.98;7.72;;;12.20;99.90;;;;;;5035220;28;20025;-70
2023/04/30 06:28:24;;;;;;;16.17;7.55;;;12.80;99.90;;;;;;5043227;28;20058;-71
2023/04/30 06:30:50;;;;;;;13.25;6.28;;;13.60;99.90;;;;;;5034256;28;20029;-72
2023/04/30 06:33:16;;;;;;;14.90;7.38;;;14.30;99.90;;;;;;5046741;28;20037;-70
2023/04/30 06:35:42;;;;;;;13.82;6.80;;;15.00;99.90;;;;;;5035067;28;20366;-73
2023/04/30 06:38:07;;;;;;;12.05;5.93;;;15.90;99.90;;;;;;5038124;28;20104;-70
2023/04/30 06:40:34;;;;;;;13.32;5.72;;;16.80;99.90;;;;;;5032733;28;20036;-72
2023/04/30 06:42:59;;;;;;;10.65;5.40;;;17.70;99.90;;;;;;5044263;28;20032;-70
2023/04/30 06:45:25;;;;;;;12.35;5.78;;;18.60;99.90;;;;;;5035286;28;20079;-73
2023/04/30 06:47:51;;;;;;;12.27;5.53;;;19.40;99.90;;;;;;5047797;28;20100;-70
2023/04/30 06:50:17;;;;;;;10.38;5.03;;;20.20;99.90;;;;;;5033591;28;20025;-72
2023/04/30 06:52:43;;;;;;;10.02;5.13;;;20.90;98.60;;;;;;5035089;28;20083;-72
2023/04/30 06:55:08;;;;;;;9.55;4.25;;;21.50;97.20;;;;;;5041839;28;20034;-72
2023/04/30 06:57:36;;;;;;;9.70;5.43;;;22.00;95.90;;;;;;5048018;28;20036;-73
2023/04/30 07:00:04;;;;;;;9.15;4.75;;;22.30;94.10;;;;;;5033752;28;20525;-71
2023/04/30 07:02:30;;;;;;;9.32;5.30;;;22.30;93.90;;;;;;5038233;28;20448;-73
2023/04/30 07:04:56;;;;;;;11.07;4.80;;;22.60;93.70;;;;;;5039033;28;20030;-72
2023/04/30 07:07:22;;;;;;;9.18;5.03;;;22.80;92.90;;;;;;5046916;28;20040;-71
2023/04/30 07:09:47;;;;;;;9.18;5.20;;;22.80;92.80;;;;;;5034590;28;20033;-72
2023/04/30 07:12:13;;;;;;;9.65;4.70;;;22.70;92.60;;;;;;5042657;28;20041;-73
2023/04/30 07:14:39;;;;;;;12.02;5.63;;;22.50;92.40;;;;;;5031131;28;20060;-73
2023/04/30 07:17:04;;;;;;;7.95;4.60;;;22.30;92.70;;;;;;5030469;28;20400;-73
2023/04/30 07:19:31;;;;;;;8.98;4.40;;;22.10;92.70;;;;;;5047773;28;20025;-71
2023/04/30 07:21:57;;;;;;;10.88;5.03;;;21.70;92.60;;;;;;5034521;28;20469;-74
2023/04/30 07:24:22;;;;;;;9.52;5.30;;;21.20;93.10;;;;;;5043111;28;20042;-72
2023/04/30 07:26:48;;;;;;;9.38;4.68;;;20.50;93.90;;;;;;5033820;28;20076;-74
2023/04/30 07:29:13;;;;;;;8.98;5.10;;;19.90;94.60;;;;;;5046680;28;20028;-72
2023/04/30 07:31:39;;;;;;;7.72;4.30;;;19.30;95.30;;;;;;5037679;28;20469;-71
2023/04/30 07:34:04;;;;;;;12.82;5.78;;;18.70;95.80;;;;;;5041176;28;20028;-72
2023/04/30 07:36:30;;;;;;;10.52;4.60;;;18.30;96.50;;;;;;5039719;28;20067;-74
2023/04/30 07:38:55;;;;;;;12.88;5.70;;;17.80;97.10;;;;;;5042449;28;20127;-71
2023/04/30 07:41:23;;;;;;;10.90;5.18;;;17.60;98.10;;;;;;5050402;28;20032;-74
2023/04/30 07:43:48;;;;;;;11.18;6.22;;;17.60;98.50;;;;;;5034141;28;20404;-72
2023/04/30 07:46:14;;;;;;;12.68;5.95;;;17.60;98.90;;;;;;5040590;28;20025;-72
2023/04/30 07:48:40;;;;;;;7.88;4.78;;;17.80;98.90;;;;;;5044773;28;20025;-73
2023/04/30 07:51:05;;;;;;;9.18;5.13;;;18.10;98.30;;;;;;5047987;28;20469;-73
2023/04/30 07:53:31;;;;;;;10.20;4.78;;;18.40;98.10;;;;;;5037507;28;20758;-73
2023/04/30 07:55:56;;;;;;;8.85;4.25;;;18.70;97.60;;;;;;5050665;28;20025;-73
2023/04/30 07:58:22;;;;;;;12.32;5.03;;;19.10;96.60;;;;;;5041879;28;20025;-74
2023/04/30 08:00:48;;;;;;;8.63;4.32;;;19.50;96.50;;;;;;5043410;28;20509;-72
2023/04/30 08:03:13;;;;;;;9.23;5.05;;;20.10;95.70;;;;;;5035516;28;20041;-75
2023/04/30 08:05:40;;;;;;;9.95;3.95;;;20.80;95.30;;;;;;5050772;28;20104;-73
2023/04/30 08:08:05;;;;;;;8.40;4.10;;;21.50;94.00;;;;;;5037954;28;20145;-77
2023/04/30 08:10:31;;;;;;;6.63;4.18;;;22.20;93.10;;;;;;5045724;28;20446;-73
2023/04/30 08:12:57;;;;;;;7.65;4.22;;;23.30;91.80;;;;;;5046071;28;20083;-74
2023/04/30 08:15:22;;;;;;;6.35;3.92;;;24.10;90.40;;;;;;5038388;28;20040;-73
2023/04/30 08:17:50;;;;;;;7.10;4.03;;;24.70;90.20;;;;;;5050234;28;20041;-73
2023/04/30 08:20:16;;;;;;;6.57;3.92;;;25.60;87.50;;;;;;5040595;28;20029;-74
2023/04/30 08:22:42;;;;;;;9.85;4.47;;;26.40;86.20;;;;;;5045790;28;20544;-75
2023/04/30 08:25:10;;;;;;;8.52;4.95;;;27.30;83.50;;;;;;5047378;28;20029;-74
2023/04/30 08:27:36;;;;;;;10.93;6.25;;;28.00;81.30;;;;;;5037417;28;20052;-74
2023/04/30 08:30:02;;;;;;;9.15;4.40;;;28.80;79.20;;;;;;5049256;28;20017;-76
2023/04/30 08:32:28;;;;;;;8.73;4.28;;;29.10;78.50;;;;;;5042304;28;20461;-76
2023/04/30 08:34:55;;;;;;;7.65;4.22;;;29.70;76.90;;;;;;5045291;28;20033;-76
2023/04/30 08:37:21;;;;;;;6.35;4.60;;;30.40;75.30;;;;;;5049057;28;20025;-72
2023/04/30 08:39:46;;;;;;;7.93;3.75;;;31.30;73.20;;;;;;5044246;28;20047;-73
2023/04/30 08:42:14;;;;;;;6.88;4.20;;;31.80;71.10;;;;;;5038901;28;20048;-75
2023/04/30 08:44:42;;;;;;;7.68;4.05;;;31.70;70.70;;;;;;5048141;28;20454;-73
2023/04/30 08:47:12;;;;;;;10.20;5.25;;;31.90;68.80;;;;;;5053167;28;20029;-72
2023/04/30 08:49:37;;;;;;;9.32;4.28;;;32.10;68.20;;;;;;5036690;28;20101;-72
2023/04/30 08:52:03;;;;;;;8.57;4.93;;;32.60;67.80;;;;;;5048781;28;20163;-76
2023/04/30 08:54:31;;;;;;;7.25;3.95;;;32.90;66.90;;;;;;5041846;28;20041;-73
2023/04/30 08:56:57;;;;;;;7.20;4.57;;;33.10;66.20;;;;;;5041252;28;20024;-73
2023/04/30 08:59:22;;;;;;;5.65;3.55;;;33.30;64.60;;;;;;5049191;28;20017;-73
2023/04/30 09:01:48;;;;;;;8.13;3.90;;;33.20;64.00;;;;;;5036869;28;20037;-77
2023/04/30 09:04:13;;;;;;;17.13;10.45;;;33.00;64.60;;;;;;5036267;28;20076;-73
2023/04/30 09:06:39;;;;;;;8.63;4.88;;;33.20;63.90;;;;;;5042927;28;20037;-74
2023/04/30 09:09:12;;;;;;;5.95;3.53;;;33.50;63.60;;;;;;5039856;28;20068;-73
2023/04/30 09:11:38;;;;;;;7.50;4.70;;;33.70;62.80;;;;;;5049461;28;20083;-73
2023/04/30 09:14:04;;;;;;;10.15;5.03;;;33.70;62.10;;;;;;5037805;28;20033;-74
2023/04/30 09:16:51;;;;;;;8.18;5.32;;;33.90;62.30;;;;;;5044173;28;20117;-73
2023/04/30 09:19:29;;;;;;;7.80;5.20;;;33.90;62.50;;;;;;5048372;28;20416;-73
2023/04/30 09:21:56;;;;;;;6.45;4.70;;;33.80;61.40;;;;;;5021488;28;20465;-74
2023/04/30 09:24:22;;;;;;;8.10;4.45;;;33.60;61.50;;;;;;5035461;28;20057;-73
2023/04/30 09:26:50;;;;;;;6.80;4.20;;;33.50;62.30;;;;;;5035596;28;20049;-73
2023/04/30 09:29:16;;;;;;;8.73;4.68;;;33.30;61.40;;;;;;5035099;28;20037;-75
2023/04/30 09:31:44;;;;;;;6.03;4.20;;;33.10;61.40;;;;;;5037036;28;20042;-73
2023/04/30 09:34:10;;;;;;;6.75;4.38;;;33.00;61.30;;;;;;5035002;28;20025;-73
2023/04/30 09:36:36;;;;;;;7.18;4.40;;;32.90;61.20;;;;;;5038860;28;20078;-75
2023/04/30 09:39:14;;;;;;;8.82;4.82;;;32.70;61.80;;;;;;5039733;28;20029;-76
2023/04/30 09:41:41;;;;;;;6.78;4.13;;;32.80;61.70;;;;;;5036632;28;20132;-74
2023/04/30 09:44:06;;;;;;;7.35;4.30;;;33.00;60.30;;;;;;5036632;28;20033;-74
2023/04/30 09:46:36;;;;;;;6.65;4.05;;;32.80;61.40;;;;;;5035465;28;20044;-73
2023/04/30 09:49:02;;;;;;;8.50;4.22;;;32.80;61.40;;;;;;5035427;28;20052;-72
2023/04/30 09:51:28;;;;;;;10.15;4.55;;;33.20;61.30;;;;;;5035320;28;20063;-75
2023/04/30 09:53:55;;;;;;;7.35;3.67;;;33.60;60.40;;;;;;5036915;28;20025;-73
2023/04/30 09:56:25;;;;;;;8.95;5.43;;;33.60;60.20;;;;;;5034981;28;20025;-73
2023/04/30 09:58:55;;;;;;;8.90;4.70;;;33.80;60.00;;;;;;5042071;28;20032;-75
2023/04/30 10:01:28;;;;;;;8.27;5.07;;;34.30;59.40;;;;;;5049297;28;20029;-73
2023/04/30 10:03:56;;;;;;;5.68;3.75;;;34.90;58.20;;;;;;5042340;28;20466;-74
2023/04/30 10:06:24;;;;;;;5.60;3.50;;;35.00;58.60;;;;;;5044154;28;20033;-76
2023/04/30 10:08:56;;;;;;;6.63;4.07;;;35.20;57.70;;;;;;5034330;28;20483;-74
2023/04/30 10:11:27;;;;;;;8.25;5.05;;;35.00;57.50;;;;;;5034225;28;20492;-74
2023/04/30 10:14:11;;;;;;;5.90;3.92;;;35.00;58.10;;;;;;5037491;28;20043;-73
2023/04/30 10:16:41;;;;;;;6.32;3.95;;;35.20;57.50;;;;;;5034904;28;20445;-73
2023/04/30 10:19:19;;;;;;;10.30;5.13;;;35.40;57.10;;;;;;5028027;28;20037;-74
2023/04/30 10:21:46;;;;;;;6.75;4.25;;;35.60;57.40;;;;;;5037148;28;20508;-73
2023/04/30 10:24:18;;;;;;;6.78;4.35;;;36.00;56.90;;;;;;5037272;28;20029;-73
2023/04/30 10:26:46;;;;;;;5.38;3.28;;;36.10;56.40;;;;;;5037414;28;20056;-73
2023/04/30 10:29:18;;;;;;;6.07;3.72;;;36.60;55.90;;;;;;5045812;28;20427;-73
2023/04/30 10:31:47;;;;;;;4.05;2.92;;;36.90;55.60;;;;;;5041015;28;20033;-76
2023/04/30 10:34:12;;;;;;;4.45;3.47;;;36.90;54.70;;;;;;5038040;28;20033;-73
2023/04/30 10:36:44;;;;;;;6.55;4.20;;;36.70;54.60;;;;;;5042108;28;20067;-73
2023/04/30 10:39:11;;;;;;;6.10;3.60;;;36.40;55.10;;;;;;5043034;28;20030;-75
2023/04/30 10:41:37;;;;;;;5.97;3.40;;;36.50;54.90;;;;;;5035293;28;20057;-73
2023/04/30 10:44:08;;;;;;;7.25;4.45;;;36.40;54.80;;;;;;5039034;28;20025;-73
2023/04/30 10:46:35;;;;;;;6.63;3.90;;;36.40;55.10;;;;;;5031110;28;20083;-75
2023/04/30 10:49:00;;;;;;;6.75;3.80;;;36.50;54.80;;;;;;5037256;28;20017;-74
2023/04/30 10:51:48;;;;;;;6.13;4.10;;;36.70;54.40;;;;;;5040462;28;20389;-75
2023/04/30 10:54:16;;;;;;;4.85;2.97;;;36.80;54.20;;;;;;5021985;28;20032;-73
2023/04/30 10:56:45;;;;;;;6.57;3.22;;;37.00;53.10;;;;;;5033168;28;20022;-73
2023/04/30 10:59:11;;;;;;;4.80;3.30;;;36.60;53.10;;;;;;5039709;28;20032;-72
2023/04/30 11:01:59;;;;;;;5.07;3.70;;;36.00;53.90;;;;;;5034956;28;20113;-72
2023/04/30 11:04:25;;;;;;;7.53;3.45;;;35.60;54.30;;;;;;5044239;28;20434;-72
2023/04/30 11:06:59;;;;;;;6.85;3.30;;;35.30;54.20;;;;;;5043604;28;20114;-73
2023/04/30 11:09:42;;;;;;;5.00;3.35;;;35.10;54.50;;;;;;5047484;28;20064;-72
2023/04/30 11:12:20;;;;;;;5.18;3.13;;;35.10;54.20;;;;;;5025074;28;20045;-74
2023/04/30 11:14:48;;;;;;;5.43;3.40;;;35.10;54.50;;;;;;5035068;28;20030;-72
2023/04/30 11:17:22;;;;;;;6.78;3.80;;;35.00;54.20;;;;;;5049756;28;20057;-73
2023/04/30 11:19:50;;;;;;;4.35;3.10;;;34.90;54.30;;;;;;5051562;28;20068;-73
2023/04/30 11:22:18;;;;;;;6.55;3.20;;;34.60;54.20;;;;;;5041020;28;20424;-72
2023/04/30 11:24:59;;;;;;;6.03;3.17;;;34.30;55.00;;;;;;5044841;28;20033;-73
2023/04/30 11:27:31;;;;;;;4.47;3.17;;;34.30;54.90;;;;;;5050014;28;20226;-73
2023/04/30 11:29:57;;;;;;;5.72;3.35;;;34.40;54.90;;;;;;5022015;28;20021;-73
2023/04/30 11:32:26;;;;;;;5.80;3.30;;;34.70;55.20;;;;;;5044133;28;20033;-75
2023/04/30 11:34:51;;;;;;;4.97;3.50;;;35.00;54.40;;;;;;5041307;28;20021;-74
2023/04/30 11:37:20;;;;;;;7.10;3.72;;;35.20;54.10;;;;;;5049186;28;20031;-73
2023/04/30 11:39:47;;;;;;;6.00;3.17;;;35.10;53.90;;;;;;5038363;28;20025;-73
2023/04/30 11:42:20;;;;;;;5.03;3.38;;;34.80;54.40;;;;;;5048754;28;20029;-74
2023/04/30 11:44:45;;;;;;;6.20;3.60;;;34.30;54.50;;;;;;5044946;28;20025;-73
2023/04/30 11:47:14;;;;;;;5.55;3.78;;;34.20;54.60;;;;;;5040660;28;20389;-73
2023/04/30 11:49:41;;;;;;;6.68;3.70;;;34.00;55.00;;;;;;5050897;28;20057;-73
2023/04/30 11:52:08;;;;;;;6.13;3.67;;;34.00;55.20;;;;;;5039383;28;20029;-74
2023/04/30 11:54:37;;;;;;;6.80;3.63;;;34.20;54.70;;;;;;5044482;28;20450;-73
2023/04/30 11:57:03;;;;;;;7.85;4.45;;;34.40;54.60;;;;;;5046964;28;20032;-73
2023/04/30 11:59:30;;;;;;;9.10;4.60;;;33.90;54.80;;;;;;5038126;28;20057;-72
2023/04/30 12:01:56;;;;;;;6.63;3.90;;;33.00;55.60;;;;;;5049540;28;20025;-73
2023/04/30 12:04:21;;;;;;;5.55;3.25;;;32.70;56.20;;;;;;5041135;28;20479;-72
2023/04/30 12:06:47;;;;;;;5.53;3.10;;;32.90;55.60;;;;;;5042404;28;20025;-73
2023/04/30 12:09:13;;;;;;;4.93;3.40;;;32.80;55.50;;;;;;5043877;28;20036;-75
2023/04/30 12:11:39;;;;;;;7.55;3.60;;;32.30;56.80;;;;;;5037038;28;20038;-73
2023/04/30 12:14:09;;;;;;;7.65;4.35;;;32.20;56.40;;;;;;5046483;28;20462;-74
2023/04/30 12:16:49;;;;;;;5.67;4.07;;;32.30;56.20;;;;;;5034231;28;20099;-71
2023/04/30 12:19:24;;;;;;;6.90;3.78;;;32.50;56.00;;;;;;5048246;28;20269;-73
2023/04/30 12:21:53;;;;;;;6.40;3.55;;;32.40;56.30;;;;;;5033282;28;20469;-72
2023/04/30 12:24:19;;;;;;;7.28;3.78;;;32.20;57.30;;;;;;5040160;28;20104;-73
2023/04/30 12:26:46;;;;;;;5.45;3.83;;;32.60;56.40;;;;;;5043042;28;20145;-72
2023/04/30 12:29:17;;;;;;;6.82;3.50;;;32.90;55.80;;;;;;5045863;28;20021;-75
2023/04/30 12:31:44;;;;;;;6.82;3.72;;;33.00;55.50;;;;;;5033623;28;20034;-74
2023/04/30 12:34:11;;;;;;;4.88;3.33;;;32.70;55.40;;;;;;5032775;28;20033;-74
2023/04/30 12:36:41;;;;;;;4.90;3.38;;;32.10;56.00;;;;;;5035455;28;20021;-72
2023/04/30 12:39:12;;;;;;;7.97;4.07;;;31.40;56.70;;;;;;5036446;28;20056;-74
2023/04/30 12:41:44;;;;;;;8.68;4.07;;;30.90;57.50;;;;;;5035093;28;20025;-73